Time;durP1;ratioP1;P1;durP2;ratioP2;P2;SDS_P1;SDS_P2;PMS_P1;PMS_P2;Temp;Humidity;BMP_temperature;BMP_pressure;BME280_temperature;BME280_humidity;BME280_pressure;Samples;Min_cycle;Max_cycle;Signal;HPM_P1;HPM_P2
2021/10/01 00:00:08;;;;;;;2.90;1.20;;;;;;;;;;5118554;28;20484;-71
2021/10/01 00:02:36;;;;;;;4.43;1.20;;;;;;;;;;5118334;28;20450;-71
2021/10/01 00:05:03;;;;;;;4.27;1.53;;;;;;;;;;5118267;28;20454;-71
2021/10/01 00:07:33;;;;;;;4.20;1.23;;;;;;;;;;5117879;28;20475;-71
2021/10/01 00:10:01;;;;;;;4.30;1.00;;;;;;;;;;5117403;28;20738;-71
2021/10/01 00:12:28;;;;;;;2.90;0.90;;;;;;;;;;5117827;28;20718;-71
2021/10/01 00:14:56;;;;;;;3.70;1.43;;;;;;;;;;5117252;28;20545;-71
2021/10/01 00:17:24;;;;;;;3.30;1.33;;;;;;;;;;5116795;28;20538;-71
2021/10/01 00:19:52;;;;;;;3.00;1.17;;;;;;;;;;5116835;28;20725;-70
2021/10/01 00:22:24;;;;;;;2.50;1.27;;;;;;;;;;5117039;28;20461;-71
2021/10/01 00:24:51;;;;;;;3.67;1.97;;;;;;;;;;5118107;27;20431;-71
2021/10/01 00:27:21;;;;;;;1.50;1.00;;;;;;;;;;5118232;27;20455;-71
2021/10/01 00:29:48;;;;;;;5.53;1.40;;;;;;;;;;5117337;28;20518;-72
2021/10/01 00:32:16;;;;;;;4.13;1.77;;;;;;;;;;5118519;28;20921;-70
2021/10/01 00:34:46;;;;;;;3.27;1.70;;;;;;;;;;5117523;28;20442;-71
2021/10/01 00:37:13;;;;;;;4.67;1.47;;;;;;;;;;5118258;27;20454;-71
2021/10/01 00:39:41;;;;;;;4.53;1.50;;;;;;;;;;5118903;27;20521;-71
2021/10/01 00:42:08;;;;;;;2.10;0.90;;;;;;;;;;5118518;27;20485;-71
2021/10/01 00:44:35;;;;;;;2.60;1.00;;;;;;;;;;5118345;27;20441;-71
2021/10/01 00:47:03;;;;;;;2.37;1.20;;;;;;;;;;5118255;27;20457;-71
2021/10/01 00:49:31;;;;;;;2.97;1.43;;;;;;;;;;5118670;27;20490;-71
2021/10/01 00:52:00;;;;;;;2.40;1.00;;;;;;;;;;5118072;27;20445;-72
2021/10/01 00:54:27;;;;;;;2.60;1.07;;;;;;;;;;5114647;27;20462;-70
2021/10/01 00:56:54;;;;;;;4.43;1.40;;;;;;;;;;5118041;27;20451;-71
2021/10/01 00:59:22;;;;;;;1.90;0.80;;;;;;;;;;5118077;27;20450;-71
2021/10/01 01:01:49;;;;;;;3.93;1.10;;;;;;;;;;5118170;27;20451;-72
2021/10/01 01:04:21;;;;;;;2.50;1.10;;;;;;;;;;5118162;27;20446;-72
2021/10/01 01:06:52;;;;;;;2.77;1.40;;;;;;;;;;5112698;27;20479;-70
2021/10/01 01:09:27;;;;;;;4.67;1.53;;;;;;;;;;5109016;28;20475;-71
2021/10/01 01:12:01;;;;;;;2.90;1.10;;;;;;;;;;5117860;27;20736;-71
2021/10/01 01:14:33;;;;;;;3.40;1.10;;;;;;;;;;5118293;27;20923;-70
2021/10/01 01:17:04;;;;;;;4.63;1.17;;;;;;;;;;5117868;27;20454;-71
2021/10/01 01:19:39;;;;;;;2.53;1.37;;;;;;;;;;5117297;27;20524;-71
2021/10/01 01:22:13;;;;;;;2.10;0.90;;;;;;;;;;5118196;27;20457;-70
2021/10/01 01:25:01;;;;;;;5.10;2.73;;;;;;;;;;5117854;27;20495;-70
2021/10/01 01:27:43;;;;;;;2.90;1.10;;;;;;;;;;5084363;28;20791;-71
2021/10/01 01:30:14;;;;;;;3.10;1.07;;;;;;;;;;5117065;28;20565;-71
2021/10/01 01:32:43;;;;;;;3.17;1.20;;;;;;;;;;5114522;28;20491;-71
2021/10/01 01:35:13;;;;;;;4.33;1.20;;;;;;;;;;5111566;28;20477;-70
2021/10/01 01:37:44;;;;;;;3.80;0.90;;;;;;;;;;5104163;27;20460;-71
2021/10/01 01:40:12;;;;;;;8.80;1.60;;;;;;;;;;5111562;28;20497;-70
2021/10/01 01:42:41;;;;;;;2.53;0.87;;;;;;;;;;5112599;28;20462;-69
2021/10/01 01:45:09;;;;;;;2.27;0.77;;;;;;;;;;5105949;28;20825;-71
2021/10/01 01:47:38;;;;;;;1.77;1.00;;;;;;;;;;5116748;28;20943;-71
2021/10/01 01:50:08;;;;;;;2.17;0.80;;;;;;;;;;5117092;28;21157;-71
2021/10/01 01:52:36;;;;;;;2.87;1.20;;;;;;;;;;5115924;28;20458;-71
2021/10/01 01:55:04;;;;;;;2.50;1.20;;;;;;;;;;5117078;28;20447;-72
2021/10/01 01:57:32;;;;;;;2.70;1.00;;;;;;;;;;5116427;28;20492;-71
2021/10/01 02:00:00;;;;;;;2.80;1.40;;;;;;;;;;5116820;27;20455;-71
2021/10/01 02:02:28;;;;;;;2.30;1.00;;;;;;;;;;5116645;28;20727;-71
2021/10/01 02:04:55;;;;;;;2.50;0.90;;;;;;;;;;5117028;27;20508;-71
2021/10/01 02:07:25;;;;;;;2.80;1.10;;;;;;;;;;5117006;27;20734;-71
2021/10/01 02:09:52;;;;;;;2.23;1.10;;;;;;;;;;5117360;27;20531;-72
2021/10/01 02:12:20;;;;;;;4.07;1.00;;;;;;;;;;5117910;27;20454;-71
2021/10/01 02:14:48;;;;;;;2.57;1.03;;;;;;;;;;5117256;27;20533;-72
2021/10/01 02:17:16;;;;;;;1.43;0.70;;;;;;;;;;5117889;27;20470;-70
2021/10/01 02:19:44;;;;;;;2.03;0.90;;;;;;;;;;5104832;28;20444;-71
2021/10/01 02:22:11;;;;;;;2.13;1.07;;;;;;;;;;5117101;27;20523;-71
2021/10/01 02:24:40;;;;;;;4.10;1.07;;;;;;;;;;5116326;28;20534;-70
2021/10/01 02:27:09;;;;;;;4.17;1.60;;;;;;;;;;5116540;28;20819;-70
2021/10/01 02:29:39;;;;;;;3.17;1.57;;;;;;;;;;5116810;28;20490;-70
2021/10/01 02:32:13;;;;;;;1.83;1.13;;;;;;;;;;5116129;28;20486;-70
2021/10/01 02:34:41;;;;;;;3.00;1.30;;;;;;;;;;5116390;28;20450;-71
2021/10/01 02:37:09;;;;;;;2.77;1.10;;;;;;;;;;5116133;28;20465;-70
2021/10/01 02:39:37;;;;;;;2.73;1.57;;;;;;;;;;5115932;28;20451;-71
2021/10/01 02:42:05;;;;;;;5.03;1.53;;;;;;;;;;5115040;28;20596;-71
2021/10/01 02:44:33;;;;;;;4.27;1.17;;;;;;;;;;5116038;28;20445;-71
2021/10/01 02:47:00;;;;;;;3.30;1.27;;;;;;;;;;5116607;28;20446;-71
2021/10/01 02:49:27;;;;;;;2.37;1.00;;;;;;;;;;5115749;28;20906;-71
2021/10/01 02:51:56;;;;;;;4.03;1.23;;;;;;;;;;5115981;28;20445;-71
2021/10/01 02:54:26;;;;;;;5.43;1.40;;;;;;;;;;5115115;28;20451;-71
2021/10/01 02:56:56;;;;;;;3.40;1.10;;;;;;;;;;5115797;27;20525;-70
2021/10/01 02:59:26;;;;;;;1.97;0.90;;;;;;;;;;5116810;27;20447;-71
2021/10/01 03:01:54;;;;;;;5.93;1.77;;;;;;;;;;5116157;27;20450;-71
2021/10/01 03:04:24;;;;;;;3.67;1.60;;;;;;;;;;5107934;27;20450;-71
2021/10/01 03:06:52;;;;;;;2.47;0.93;;;;;;;;;;5109252;27;20447;-70
2021/10/01 03:09:22;;;;;;;15.83;2.20;;;;;;;;;;5116058;27;20482;-71
2021/10/01 03:11:49;;;;;;;2.00;0.97;;;;;;;;;;5115687;27;20516;-71
2021/10/01 03:14:18;;;;;;;4.47;0.87;;;;;;;;;;5104288;28;20466;-71
2021/10/01 03:16:52;;;;;;;4.40;1.13;;;;;;;;;;5111220;27;20443;-70
2021/10/01 03:19:23;;;;;;;3.50;1.30;;;;;;;;;;5116758;27;20454;-70
2021/10/01 03:21:52;;;;;;;2.50;0.90;;;;;;;;;;5115615;27;21008;-70
2021/10/01 03:24:20;;;;;;;4.30;1.43;;;;;;;;;;5116501;27;20454;-70
2021/10/01 03:26:48;;;;;;;3.33;1.50;;;;;;;;;;5116293;27;20447;-69
2021/10/01 03:29:16;;;;;;;3.00;1.63;;;;;;;;;;5116422;27;20577;-69
2021/10/01 03:31:43;;;;;;;2.30;0.90;;;;;;;;;;5114281;28;20436;-71
2021/10/01 03:34:11;;;;;;;2.63;1.00;;;;;;;;;;5098604;28;20463;-70
2021/10/01 03:36:39;;;;;;;3.77;1.10;;;;;;;;;;5098731;28;20459;-70
2021/10/01 03:39:09;;;;;;;4.17;1.23;;;;;;;;;;5100390;28;21874;-70
2021/10/01 03:41:39;;;;;;;2.70;1.23;;;;;;;;;;5118842;27;20455;-70
2021/10/01 03:44:06;;;;;;;3.20;1.50;;;;;;;;;;5118895;27;20515;-70
2021/10/01 03:46:34;;;;;;;5.00;1.10;;;;;;;;;;5119219;27;20862;-71
2021/10/01 03:49:01;;;;;;;2.60;1.00;;;;;;;;;;5118944;27;20573;-71
2021/10/01 03:51:30;;;;;;;4.30;1.13;;;;;;;;;;5102244;27;20458;-70
2021/10/01 03:53:58;;;;;;;2.20;0.90;;;;;;;;;;5098256;28;20462;-71
2021/10/01 03:56:25;;;;;;;4.10;1.50;;;;;;;;;;5098536;28;21021;-71
2021/10/01 03:58:52;;;;;;;1.90;0.90;;;;;;;;;;5112538;27;20520;-70
2021/10/01 04:01:19;;;;;;;2.10;1.07;;;;;;;;;;5114155;27;20439;-71
2021/10/01 04:03:47;;;;;;;2.83;0.93;;;;;;;;;;5114651;27;20451;-70
2021/10/01 04:06:14;;;;;;;2.77;1.20;;;;;;;;;;5099552;28;20448;-70
2021/10/01 04:08:42;;;;;;;4.50;1.27;;;;;;;;;;5107105;28;20495;-70
2021/10/01 04:11:09;;;;;;;2.50;0.90;;;;;;;;;;5098252;28;20452;-71
2021/10/01 04:13:36;;;;;;;2.43;1.00;;;;;;;;;;5097922;28;20448;-70
2021/10/01 04:16:04;;;;;;;2.63;1.50;;;;;;;;;;5098508;28;20468;-70
2021/10/01 04:18:31;;;;;;;3.23;1.00;;;;;;;;;;5098344;28;20461;-71
2021/10/01 04:20:59;;;;;;;3.30;1.00;;;;;;;;;;5098738;28;20516;-71
2021/10/01 04:23:26;;;;;;;1.80;0.70;;;;;;;;;;5098605;28;20433;-71
2021/10/01 04:25:54;;;;;;;3.80;1.17;;;;;;;;;;5097587;28;20495;-71
2021/10/01 04:28:21;;;;;;;2.47;1.20;;;;;;;;;;5097638;28;20464;-71
2021/10/01 04:30:49;;;;;;;3.37;1.60;;;;;;;;;;5098396;28;20527;-71
2021/10/01 04:33:20;;;;;;;4.10;1.40;;;;;;;;;;5097129;28;20531;-71
2021/10/01 04:35:47;;;;;;;3.40;1.60;;;;;;;;;;5096124;28;20553;-70
2021/10/01 04:38:14;;;;;;;3.60;1.57;;;;;;;;;;5096202;28;20459;-70
2021/10/01 04:40:44;;;;;;;2.37;1.13;;;;;;;;;;5095833;28;20459;-71
2021/10/01 04:43:12;;;;;;;3.17;1.37;;;;;;;;;;5097374;28;20550;-71
2021/10/01 04:45:40;;;;;;;3.40;1.23;;;;;;;;;;5096358;28;20470;-71
2021/10/01 04:48:07;;;;;;;5.70;1.80;;;;;;;;;;5096727;28;20444;-71
2021/10/01 04:50:35;;;;;;;4.17;1.27;;;;;;;;;;5095084;28;20557;-71
2021/10/01 04:53:02;;;;;;;3.87;1.30;;;;;;;;;;5096167;28;20444;-69
2021/10/01 04:55:29;;;;;;;2.30;1.30;;;;;;;;;;5096207;28;20966;-72
2021/10/01 04:57:56;;;;;;;2.50;1.33;;;;;;;;;;5096265;28;20455;-70
2021/10/01 05:00:31;;;;;;;3.37;1.40;;;;;;;;;;5095830;28;20468;-70
2021/10/01 05:02:58;;;;;;;6.10;1.70;;;;;;;;;;5094742;28;20734;-71
2021/10/01 05:05:25;;;;;;;2.40;1.10;;;;;;;;;;5098540;28;20533;-71
2021/10/01 05:07:55;;;;;;;2.60;1.03;;;;;;;;;;5114675;28;20450;-71
2021/10/01 05:10:23;;;;;;;5.13;1.27;;;;;;;;;;5112155;28;20482;-71
2021/10/01 05:12:50;;;;;;;3.60;1.63;;;;;;;;;;5116726;27;20455;-70
2021/10/01 05:15:18;;;;;;;3.57;1.13;;;;;;;;;;5115823;27;20499;-70
2021/10/01 05:17:46;;;;;;;1.90;1.17;;;;;;;;;;5115485;27;20457;-70
2021/10/01 05:20:14;;;;;;;3.73;2.10;;;;;;;;;;5114855;27;20461;-69
2021/10/01 05:22:41;;;;;;;2.90;1.30;;;;;;;;;;5109594;27;20458;-70
2021/10/01 05:25:08;;;;;;;4.47;1.60;;;;;;;;;;5112189;27;20543;-70
2021/10/01 05:27:36;;;;;;;2.13;1.27;;;;;;;;;;5112490;27;20493;-70
2021/10/01 05:30:04;;;;;;;2.53;1.20;;;;;;;;;;5109915;28;20547;-71
2021/10/01 05:32:31;;;;;;;3.63;1.70;;;;;;;;;;5113571;27;20552;-70
2021/10/01 05:35:01;;;;;;;3.07;0.90;;;;;;;;;;5113878;27;20541;-70
2021/10/01 05:37:28;;;;;;;5.10;1.80;;;;;;;;;;5114129;27;20459;-71
2021/10/01 05:39:55;;;;;;;2.47;1.43;;;;;;;;;;5113883;27;20827;-71
2021/10/01 05:42:22;;;;;;;6.63;1.70;;;;;;;;;;5114650;27;20502;-71
2021/10/01 05:44:50;;;;;;;6.93;1.37;;;;;;;;;;5113637;27;20479;-71
2021/10/01 05:47:17;;;;;;;5.77;1.93;;;;;;;;;;5113975;27;20480;-70
2021/10/01 05:49:44;;;;;;;3.90;1.10;;;;;;;;;;5105645;27;20544;-70
2021/10/01 05:52:24;;;;;;;3.20;1.37;;;;;;;;;;5094982;28;20447;-70
2021/10/01 05:54:52;;;;;;;1.80;0.97;;;;;;;;;;5114067;27;20458;-70
2021/10/01 05:57:22;;;;;;;4.07;1.00;;;;;;;;;;5114116;27;20929;-69
2021/10/01 05:59:50;;;;;;;2.40;0.87;;;;;;;;;;5111549;27;20447;-69
2021/10/01 06:02:18;;;;;;;7.80;1.63;;;;;;;;;;5112571;27;20478;-71
2021/10/01 06:04:46;;;;;;;8.40;1.73;;;;;;;;;;5094110;28;21047;-70
2021/10/01 06:07:14;;;;;;;2.50;1.30;;;;;;;;;;5109107;27;20481;-70
2021/10/01 06:09:43;;;;;;;5.07;1.80;;;;;;;;;;5113464;27;20490;-70
2021/10/01 06:12:11;;;;;;;6.47;1.60;;;;;;;;;;5113058;27;20505;-71
2021/10/01 06:14:39;;;;;;;3.30;2.27;;;;;;;;;;5113748;27;20806;-70
2021/10/01 06:17:06;;;;;;;3.93;1.77;;;;;;;;;;5113204;27;20454;-70
2021/10/01 06:19:40;;;;;;;4.43;1.63;;;;;;;;;;5108061;28;20466;-71
2021/10/01 06:22:08;;;;;;;4.87;2.73;;;;;;;;;;5113256;28;20849;-70
2021/10/01 06:24:36;;;;;;;6.63;1.60;;;;;;;;;;5097677;28;20555;-71
2021/10/01 06:27:04;;;;;;;2.93;1.60;;;;;;;;;;5108770;27;20467;-70
2021/10/01 06:29:38;;;;;;;3.07;1.80;;;;;;;;;;5113973;27;20569;-71
2021/10/01 06:32:05;;;;;;;6.87;1.47;;;;;;;;;;5113219;27;20891;-70
2021/10/01 06:34:33;;;;;;;4.50;1.30;;;;;;;;;;5114686;27;20496;-70
2021/10/01 06:37:00;;;;;;;2.90;1.20;;;;;;;;;;5114834;27;20494;-70
2021/10/01 06:39:27;;;;;;;3.43;1.57;;;;;;;;;;5114196;27;20515;-71
2021/10/01 06:41:55;;;;;;;2.90;1.70;;;;;;;;;;5113815;28;20887;-71
2021/10/01 06:44:25;;;;;;;6.43;2.13;;;;;;;;;;5113465;28;20895;-71
2021/10/01 06:46:58;;;;;;;2.80;1.63;;;;;;;;;;5114554;27;20495;-71
2021/10/01 06:49:37;;;;;;;4.50;2.37;;;;;;;;;;5113444;27;20482;-70
2021/10/01 07:23:12;;;;;;;4.87;2.37;;;;;;;;;;5075202;28;20432;-71
2021/10/01 07:45:05;;;;;;;4.13;2.40;;;;;;;;;;5113070;27;20547;-74
2021/10/01 08:21:39;;;;;;;2.53;1.30;;;;;;;;;;5120597;27;20461;-73
2021/10/01 08:24:08;;;;;;;4.50;2.50;;;;;;;;;;5117133;27;20968;-72
2021/10/01 08:26:36;;;;;;;3.03;1.77;;;;;;;;;;5114175;28;20537;-72
2021/10/01 08:29:03;;;;;;;3.90;1.90;;;;;;;;;;5115901;27;20519;-73
2021/10/01 08:31:31;;;;;;;4.60;2.37;;;;;;;;;;5116414;27;20647;-71
2021/10/01 08:33:59;;;;;;;6.10;2.90;;;;;;;;;;5116451;27;20451;-71
2021/10/01 08:36:29;;;;;;;3.03;2.00;;;;;;;;;;5114509;27;20447;-71
2021/10/01 08:38:56;;;;;;;4.60;2.30;;;;;;;;;;5115601;27;20570;-71
2021/10/01 08:41:24;;;;;;;3.77;2.00;;;;;;;;;;5115903;27;21124;-71
2021/10/01 08:43:51;;;;;;;3.90;2.63;;;;;;;;;;5115143;27;20461;-72
2021/10/01 08:46:19;;;;;;;3.03;1.70;;;;;;;;;;5101790;27;20474;-71
2021/10/01 08:48:48;;;;;;;11.53;3.90;;;;;;;;;;5095915;28;20448;-74
2021/10/01 08:51:16;;;;;;;7.10;2.87;;;;;;;;;;5095809;28;20486;-72
2021/10/01 08:53:45;;;;;;;10.63;3.87;;;;;;;;;;5095142;28;20452;-71
2021/10/01 08:56:13;;;;;;;2.37;0.97;;;;;;;;;;5099121;28;20447;-71
2021/10/01 08:58:44;;;;;;;5.70;2.60;;;;;;;;;;5106288;28;20527;-72
2021/10/01 09:01:12;;;;;;;5.57;2.57;;;;;;;;;;5114778;27;20537;-71
2021/10/01 09:03:41;;;;;;;4.80;2.87;;;;;;;;;;5113624;27;20481;-73
2021/10/01 09:06:08;;;;;;;7.53;2.57;;;;;;;;;;5116269;27;20486;-74
2021/10/01 09:08:48;;;;;;;5.43;2.83;;;;;;;;;;5114137;27;20894;-70
2021/10/01 09:11:16;;;;;;;2.10;1.30;;;;;;;;;;5116416;27;20727;-72
2021/10/01 09:13:44;;;;;;;4.50;2.00;;;;;;;;;;5115311;27;20495;-73
2021/10/01 09:16:12;;;;;;;4.37;2.70;;;;;;;;;;5115441;27;20890;-72
2021/10/01 09:18:42;;;;;;;5.40;2.43;;;;;;;;;;5104320;28;20765;-72
2021/10/01 09:21:11;;;;;;;7.17;2.27;;;;;;;;;;5114877;27;20585;-71
2021/10/01 09:23:43;;;;;;;4.00;2.43;;;;;;;;;;5115604;27;20511;-72
2021/10/01 09:26:12;;;;;;;5.03;4.03;;;;;;;;;;5093873;28;20459;-72
2021/10/01 09:31:38;;;;;;;9.10;4.70;;;;;;;;;;5116967;27;20439;-73
2021/10/01 09:34:07;;;;;;;5.17;2.43;;;;;;;;;;5101579;28;20522;-72
2021/10/01 09:36:48;;;;;;;3.33;1.90;;;;;;;;;;5112130;27;20568;-72
2021/10/01 09:39:40;;;;;;;2.63;1.60;;;;;;;;;;5113914;27;20505;-72
2021/10/01 09:42:11;;;;;;;3.90;2.47;;;;;;;;;;5111356;27;20961;-73
2021/10/01 09:44:43;;;;;;;5.67;3.03;;;;;;;;;;5094496;28;20491;-72
2021/10/01 09:47:11;;;;;;;5.03;2.70;;;;;;;;;;5094400;28;20478;-73
2021/10/01 09:49:41;;;;;;;4.40;2.40;;;;;;;;;;5094015;28;20483;-73
2021/10/01 09:52:17;;;;;;;6.00;3.50;;;;;;;;;;5097058;27;20467;-73
2021/10/01 09:55:04;;;;;;;5.53;2.90;;;;;;;;;;5113981;27;20474;-72
2021/10/01 09:57:42;;;;;;;3.93;2.20;;;;;;;;;;5103557;28;20993;-74
2021/10/01 10:00:33;;;;;;;6.80;3.50;;;;;;;;;;5112481;28;20450;-72
2021/10/01 10:03:16;;;;;;;6.87;3.80;;;;;;;;;;5112000;28;20737;-71
2021/10/01 10:06:00;;;;;;;4.00;2.30;;;;;;;;;;5094819;28;20479;-72
2021/10/01 10:08:32;;;;;;;5.77;3.43;;;;;;;;;;5094841;28;20452;-73
2021/10/01 10:10:59;;;;;;;6.63;2.70;;;;;;;;;;5093969;28;20494;-73
2021/10/01 10:13:46;;;;;;;2.33;1.43;;;;;;;;;;5093941;28;20451;-73
2021/10/01 10:16:15;;;;;;;5.70;2.80;;;;;;;;;;5093430;28;20448;-72
2021/10/01 10:18:44;;;;;;;7.63;6.03;;;;;;;;;;5109793;28;20487;-72
2021/10/01 10:21:12;;;;;;;10.60;4.70;;;;;;;;;;5112521;27;20443;-72
2021/10/01 10:23:42;;;;;;;10.27;4.47;;;;;;;;;;5114286;27;20509;-72
2021/10/01 10:26:09;;;;;;;3.33;2.00;;;;;;;;;;5112909;27;20451;-72
2021/10/01 10:28:39;;;;;;;3.40;2.50;;;;;;;;;;5113373;27;20523;-73
2021/10/01 10:31:08;;;;;;;4.37;2.97;;;;;;;;;;5106437;27;20479;-73
2021/10/01 10:33:56;;;;;;;6.60;3.40;;;;;;;;;;5108333;28;20450;-73
2021/10/01 10:36:32;;;;;;;5.90;3.23;;;;;;;;;;5113974;27;20549;-73
2021/10/01 10:39:00;;;;;;;5.80;3.20;;;;;;;;;;5107787;27;20455;-73
2021/10/01 10:41:35;;;;;;;6.50;2.03;;;;;;;;;;5109375;28;20462;-73
2021/10/01 10:44:02;;;;;;;4.03;1.60;;;;;;;;;;5095766;28;20546;-72
2021/10/01 10:46:43;;;;;;;3.90;2.57;;;;;;;;;;5110829;27;20508;-72
2021/10/01 10:49:25;;;;;;;5.83;3.43;;;;;;;;;;5103473;28;20786;-72
2021/10/01 10:52:01;;;;;;;6.70;4.10;;;;;;;;;;5115436;27;20461;-73
2021/10/01 10:54:28;;;;;;;4.93;3.10;;;;;;;;;;5109172;28;20477;-72
2021/10/01 10:57:10;;;;;;;4.37;3.27;;;;;;;;;;5110418;27;20450;-72
2021/10/01 10:59:38;;;;;;;5.13;2.33;;;;;;;;;;5104242;28;20454;-71
2021/10/01 11:02:25;;;;;;;4.80;2.90;;;;;;;;;;5115510;27;20486;-73
2021/10/01 11:05:14;;;;;;;3.80;2.30;;;;;;;;;;5109653;28;20443;-73
2021/10/01 11:07:48;;;;;;;5.10;2.10;;;;;;;;;;5116200;27;20478;-73
2021/10/01 11:10:47;;;;;;;5.00;3.60;;;;;;;;;;5107267;27;20940;-74
2021/10/01 11:13:28;;;;;;;10.80;5.00;;;;;;;;;;5108750;27;20666;-73
2021/10/01 11:16:17;;;;;;;4.60;2.97;;;;;;;;;;5114476;27;20451;-74
2021/10/01 11:19:04;;;;;;;9.67;6.10;;;;;;;;;;5108915;27;20864;-73
2021/10/01 11:21:40;;;;;;;8.97;3.00;;;;;;;;;;5098285;28;20447;-73
2021/10/01 11:24:13;;;;;;;6.00;3.73;;;;;;;;;;5107597;27;20458;-72
2021/10/01 11:26:45;;;;;;;8.33;4.73;;;;;;;;;;5100878;27;20540;-72
2021/10/01 11:29:24;;;;;;;7.87;4.23;;;;;;;;;;5113518;27;20535;-73
2021/10/01 11:32:08;;;;;;;4.70;2.97;;;;;;;;;;5115048;27;20459;-74
2021/10/01 11:34:57;;;;;;;;;;;;;;;;;;;;;
2021/10/01 11:37:30;;;;;;;4.53;3.20;;;;;;;;;;5095849;28;20448;-72
2021/10/01 11:39:58;;;;;;;3.77;2.60;;;;;;;;;;5109047;28;20497;-72
2021/10/01 11:42:29;;;;;;;9.07;2.90;;;;;;;;;;5114524;28;20464;-72
2021/10/01 11:44:57;;;;;;;31.53;10.43;;;;;;;;;;5115320;28;20873;-71
2021/10/01 11:47:27;;;;;;;14.40;6.73;;;;;;;;;;5115492;27;20540;-72
2021/10/01 11:50:08;;;;;;;8.37;4.60;;;;;;;;;;5114985;28;20475;-71
2021/10/01 11:52:43;;;;;;;7.53;2.67;;;;;;;;;;5112966;27;20454;-72
2021/10/01 11:55:15;;;;;;;5.47;3.00;;;;;;;;;;5112992;27;20514;-71
2021/10/01 11:57:46;;;;;;;6.80;4.37;;;;;;;;;;5114656;27;20466;-71
2021/10/01 12:00:17;;;;;;;3.73;1.53;;;;;;;;;;5111902;27;20586;-72
2021/10/01 12:02:50;;;;;;;3.83;2.03;;;;;;;;;;5107529;27;21081;-73
2021/10/01 12:05:35;;;;;;;4.70;2.73;;;;;;;;;;5110165;27;20461;-72
2021/10/01 12:08:13;;;;;;;5.00;3.03;;;;;;;;;;5101883;28;20485;-71
2021/10/01 12:13:27;;;;;;;4.83;3.70;;;;;;;;;;5111708;28;20469;-72
2021/10/01 12:16:07;;;;;;;2.80;2.00;;;;;;;;;;5110143;27;20979;-73
2021/10/01 12:18:44;;;;;;;6.57;4.30;;;;;;;;;;5095823;28;20523;-72
2021/10/01 12:21:18;;;;;;;7.13;4.33;;;;;;;;;;5107411;27;20463;-74
2021/10/01 12:24:10;;;;;;;4.27;2.47;;;;;;;;;;5107876;27;20467;-72
2021/10/01 12:26:44;;;;;;;4.13;2.60;;;;;;;;;;5106481;27;20460;-71
2021/10/01 12:29:14;;;;;;;4.77;2.80;;;;;;;;;;5109782;27;20513;-74
2021/10/01 12:31:48;;;;;;;3.63;2.13;;;;;;;;;;5108478;27;20478;-73
2021/10/01 12:34:22;;;;;;;3.07;2.00;;;;;;;;;;5107043;27;20519;-71
2021/10/01 12:36:53;;;;;;;6.90;3.83;;;;;;;;;;5108100;27;20463;-72
2021/10/01 12:39:26;;;;;;;4.17;2.90;;;;;;;;;;5099678;28;20448;-73
2021/10/01 12:42:08;;;;;;;4.60;2.87;;;;;;;;;;5101053;27;20474;-72
2021/10/01 12:44:39;;;;;;;4.43;2.50;;;;;;;;;;5103091;27;20907;-73
2021/10/01 12:47:15;;;;;;;5.30;4.40;;;;;;;;;;5103650;27;20512;-73
2021/10/01 12:49:43;;;;;;;8.17;4.70;;;;;;;;;;5110125;28;20482;-72
2021/10/01 12:52:15;;;;;;;9.43;2.97;;;;;;;;;;5105868;27;20548;-72
2021/10/01 12:54:47;;;;;;;4.70;3.10;;;;;;;;;;5108366;28;20478;-72
2021/10/01 12:57:24;;;;;;;4.00;3.20;;;;;;;;;;5111911;28;20459;-72
2021/10/01 13:00:00;;;;;;;4.83;2.70;;;;;;;;;;5108072;28;20537;-70
2021/10/01 13:02:28;;;;;;;4.17;2.40;;;;;;;;;;5109996;27;20455;-71
2021/10/01 13:05:06;;;;;;;4.20;2.80;;;;;;;;;;5113026;28;20995;-71
2021/10/01 13:07:35;;;;;;;6.03;4.10;;;;;;;;;;5098523;28;20458;-72
2021/10/01 13:10:18;;;;;;;5.30;3.90;;;;;;;;;;5099256;28;20691;-72
2021/10/01 13:12:50;;;;;;;6.03;2.80;;;;;;;;;;5108769;27;20479;-71
2021/10/01 13:15:22;;;;;;;4.73;3.57;;;;;;;;;;5108654;27;20447;-70
2021/10/01 13:18:14;;;;;;;4.57;3.43;;;;;;;;;;5097445;28;20466;-71
2021/10/01 13:20:42;;;;;;;7.67;4.23;;;;;;;;;;5105559;27;20499;-69
2021/10/01 13:23:10;;;;;;;5.07;2.13;;;;;;;;;;5100792;28;20470;-71
2021/10/01 13:25:38;;;;;;;5.53;2.57;;;;;;;;;;5107003;27;20555;-73
2021/10/01 13:28:07;;;;;;;4.13;2.53;;;;;;;;;;5111952;28;20454;-70
2021/10/01 13:30:36;;;;;;;3.50;1.73;;;;;;;;;;5112869;27;20501;-72
2021/10/01 13:33:06;;;;;;;6.67;2.53;;;;;;;;;;5111811;28;20451;-71
2021/10/01 13:35:33;;;;;;;6.37;3.20;;;;;;;;;;5112727;27;20469;-70
2021/10/01 13:38:01;;;;;;;4.33;2.53;;;;;;;;;;5111670;27;20542;-72
2021/10/01 13:40:42;;;;;;;5.13;3.07;;;;;;;;;;5096608;28;20611;-72
2021/10/01 13:43:11;;;;;;;3.03;2.00;;;;;;;;;;5108044;27;20826;-70
2021/10/01 13:45:46;;;;;;;4.03;1.80;;;;;;;;;;5104258;27;21073;-73
2021/10/01 13:48:14;;;;;;;4.83;2.33;;;;;;;;;;5105840;28;20521;-72
2021/10/01 13:50:45;;;;;;;6.50;3.80;;;;;;;;;;5111576;28;20485;-71
2021/10/01 13:53:12;;;;;;;4.87;3.20;;;;;;;;;;5112691;28;20459;-71
2021/10/01 13:55:40;;;;;;;5.00;2.70;;;;;;;;;;5112672;27;20455;-72
2021/10/01 13:58:15;;;;;;;6.20;2.73;;;;;;;;;;5113992;27;20477;-72
2021/10/01 14:00:54;;;;;;;3.97;2.63;;;;;;;;;;5114266;27;20558;-71
2021/10/01 14:03:39;;;;;;;5.60;2.77;;;;;;;;;;5114975;27;20585;-72
2021/10/01 14:06:14;;;;;;;4.40;2.90;;;;;;;;;;5114222;27;20538;-72
2021/10/01 14:08:42;;;;;;;8.83;3.20;;;;;;;;;;5111895;27;20499;-71
2021/10/01 14:11:13;;;;;;;9.50;5.17;;;;;;;;;;5094462;28;20479;-71
2021/10/01 14:13:43;;;;;;;5.33;3.33;;;;;;;;;;5094834;28;20471;-72
2021/10/01 14:16:13;;;;;;;6.43;3.83;;;;;;;;;;5112310;28;20447;-71
2021/10/01 14:18:47;;;;;;;6.67;4.47;;;;;;;;;;5106082;27;21142;-71
2021/10/01 14:21:16;;;;;;;3.73;2.90;;;;;;;;;;5104285;28;20458;-72
2021/10/01 14:23:46;;;;;;;6.90;3.43;;;;;;;;;;5111576;28;20450;-71
2021/10/01 14:26:13;;;;;;;4.30;3.23;;;;;;;;;;5112245;27;20512;-71
2021/10/01 14:28:41;;;;;;;3.80;3.10;;;;;;;;;;5098673;27;20470;-71
2021/10/01 14:31:11;;;;;;;6.40;3.43;;;;;;;;;;5109974;27;20486;-70
2021/10/01 14:33:39;;;;;;;5.30;2.50;;;;;;;;;;5107696;28;20842;-71
2021/10/01 14:39:21;;;;;;;6.40;1.90;;;;;;;;;;5102637;27;20534;-71
2021/10/01 14:41:59;;;;;;;4.40;2.07;;;;;;;;;;5098639;28;20499;-70
2021/10/01 14:44:26;;;;;;;5.03;2.83;;;;;;;;;;5106315;27;20459;-71
2021/10/01 14:46:57;;;;;;;3.60;2.53;;;;;;;;;;5110718;27;20446;-71
2021/10/01 14:49:33;;;;;;;6.13;3.83;;;;;;;;;;5100700;28;20502;-72
2021/10/01 14:52:02;;;;;;;8.97;5.80;;;;;;;;;;5093967;27;21007;-71
2021/10/01 14:54:29;;;;;;;4.60;1.70;;;;;;;;;;5109539;27;20471;-72
2021/10/01 14:57:05;;;;;;;3.47;2.40;;;;;;;;;;5112735;27;20450;-70
2021/10/01 14:59:33;;;;;;;3.20;2.00;;;;;;;;;;5113136;27;20454;-71
2021/10/01 15:02:00;;;;;;;5.97;2.83;;;;;;;;;;5093409;28;20964;-72
2021/10/01 15:04:36;;;;;;;6.27;3.97;;;;;;;;;;5105869;28;20511;-71
2021/10/01 15:07:04;;;;;;;6.17;4.33;;;;;;;;;;5113934;27;20600;-71
2021/10/01 15:09:32;;;;;;;5.43;3.40;;;;;;;;;;5113600;27;20866;-71
2021/10/01 15:11:59;;;;;;;4.23;2.03;;;;;;;;;;5101474;28;20475;-72
2021/10/01 15:14:37;;;;;;;5.70;3.20;;;;;;;;;;5111880;27;20462;-71
2021/10/01 15:17:05;;;;;;;3.77;2.40;;;;;;;;;;5110714;27;20953;-72
2021/10/01 15:19:32;;;;;;;4.70;2.87;;;;;;;;;;5113035;27;20462;-71
2021/10/01 15:22:12;;;;;;;10.70;6.47;;;;;;;;;;5113694;27;20690;-72
2021/10/01 15:24:40;;;;;;;5.10;2.70;;;;;;;;;;5113600;27;20446;-72
2021/10/01 15:27:22;;;;;;;5.87;3.90;;;;;;;;;;5112591;27;20917;-73
2021/10/01 15:30:13;;;;;;;9.33;3.23;;;;;;;;;;5107412;28;20862;-72
2021/10/01 15:32:44;;;;;;;6.43;3.30;;;;;;;;;;5115170;28;20464;-71
2021/10/01 15:35:16;;;;;;;5.07;4.00;;;;;;;;;;5116066;28;20523;-73
2021/10/01 15:49:29;;;;;;;5.90;4.00;;;;;;;;;;5087929;28;20470;-72
2021/10/01 15:52:13;;;;;;;;;;;;;;;;;;;;;
2021/10/01 15:55:09;;;;;;;5.30;2.33;;;;;;;;;;5054072;28;20897;-72
2021/10/01 16:01:16;;;;;;;;;;;;;;;;;;;;;
2021/10/01 16:06:59;;;;;;;6.70;3.63;;;;;;;;;;5111109;28;20533;-72
2021/10/01 16:09:59;;;;;;;11.80;4.17;;;;;;;;;;5101329;28;20536;-71
2021/10/01 16:12:39;;;;;;;6.80;4.63;;;;;;;;;;5117427;28;20443;-72
2021/10/01 16:15:14;;;;;;;6.60;4.40;;;;;;;;;;5110665;28;20459;-72
2021/10/01 16:17:51;;;;;;;11.23;5.13;;;;;;;;;;5117130;27;20449;-72
2021/10/01 16:20:22;;;;;;;7.70;5.57;;;;;;;;;;5115983;27;20462;-71
2021/10/01 16:22:54;;;;;;;11.17;7.33;;;;;;;;;;5116420;28;20443;-71
2021/10/01 16:25:23;;;;;;;6.97;4.30;;;;;;;;;;5116598;28;20469;-71
2021/10/01 16:28:04;;;;;;;5.30;2.33;;;;;;;;;;5095616;28;20528;-70
2021/10/01 16:30:33;;;;;;;5.70;2.60;;;;;;;;;;5097179;28;20547;-71
2021/10/01 16:33:10;;;;;;;6.37;3.47;;;;;;;;;;5095203;28;20447;-71
2021/10/01 16:35:46;;;;;;;5.43;3.03;;;;;;;;;;5096691;28;20516;-72
2021/10/01 16:38:32;;;;;;;6.73;5.30;;;;;;;;;;5109192;27;20543;-71
2021/10/01 16:41:19;;;;;;;12.90;7.60;;;;;;;;;;5116773;27;20459;-72
2021/10/01 16:43:57;;;;;;;15.20;8.13;;;;;;;;;;5099616;27;20459;-73
2021/10/01 16:46:27;;;;;;;8.13;3.10;;;;;;;;;;5114621;28;20527;-72
2021/10/01 16:49:04;;;;;;;9.43;4.27;;;;;;;;;;5100399;28;20480;-71
2021/10/01 16:51:43;;;;;;;8.23;3.30;;;;;;;;;;5097989;28;20521;-72
2021/10/01 16:54:11;;;;;;;6.00;3.37;;;;;;;;;;5100049;28;20469;-71
2021/10/01 16:56:40;;;;;;;12.77;7.87;;;;;;;;;;5115552;27;20933;-71
2021/10/01 16:59:11;;;;;;;39.73;21.10;;;;;;;;;;5113473;27;20443;-71
2021/10/01 17:01:47;;;;;;;14.73;8.00;;;;;;;;;;5114639;27;20543;-72